createdAt,value
2022-08-16T00:02:11.978Z,0
2022-08-16T00:08:30.727Z,0
2022-08-16T00:14:56.629Z,0
2022-08-16T00:21:12.765Z,0
2022-08-16T00:27:35.733Z,0
2022-08-16T00:33:55.743Z,0
2022-08-16T00:40:33.855Z,0
2022-08-16T00:46:52.756Z,0
2022-08-16T00:53:01.750Z,0
2022-08-16T00:59:21.776Z,0
2022-08-16T01:05:44.753Z,0
2022-08-16T01:12:04.767Z,0
2022-08-16T01:18:39.648Z,0
2022-08-16T01:24:53.790Z,0
2022-08-16T01:31:10.765Z,0
2022-08-16T01:37:35.472Z,0
2022-08-16T01:43:54.641Z,0
2022-08-16T01:50:41.273Z,0
2022-08-16T01:56:36.860Z,0
2022-08-16T02:02:56.731Z,0
2022-08-16T02:09:19.738Z,0
2022-08-16T02:15:42.433Z,0
2022-08-16T02:22:08.169Z,0
2022-08-16T02:28:23.471Z,0
2022-08-16T02:34:45.742Z,0
2022-08-16T02:41:07.410Z,0
2022-08-16T02:47:28.751Z,0
2022-08-16T02:53:48.788Z,0
2022-08-16T03:00:32.282Z,0
2022-08-16T03:06:36.320Z,0
2022-08-16T03:12:55.814Z,0
2022-08-16T03:19:14.763Z,0
2022-08-16T03:25:41.215Z,0
2022-08-16T03:31:57.770Z,0
2022-08-16T03:48:36.067Z,0
2022-08-16T03:54:53.144Z,0
2022-08-16T04:01:09.747Z,0
2022-08-16T04:07:33.397Z,0
2022-08-16T04:13:58.823Z,0
2022-08-16T04:20:13.455Z,0
2022-08-16T04:26:35.758Z,0
2022-08-16T04:32:55.847Z,0
2022-08-16T04:39:18.884Z,0
2022-08-16T04:45:38.794Z,5.62
2022-08-16T04:52:01.847Z,5.62
2022-08-16T04:58:38.597Z,5.62
2022-08-16T05:04:44.791Z,5.62
2022-08-16T05:11:05.640Z,11.25
2022-08-16T05:17:27.823Z,11.25
2022-08-16T05:23:51.925Z,11.25
2022-08-16T05:30:34.246Z,11.25
2022-08-16T05:36:33.646Z,16.88
2022-08-16T05:42:54.141Z,16.88
2022-08-16T05:49:13.753Z,16.88
2022-08-16T05:55:40.711Z,16.88
2022-08-16T06:01:56.874Z,16.88
2022-08-16T06:08:31.570Z,16.88
2022-08-16T06:14:39.975Z,22.5
2022-08-16T06:21:02.760Z,22.5
2022-08-16T06:27:22.774Z,22.5
2022-08-16T06:33:45.750Z,22.5
2022-08-16T06:40:12.579Z,22.5
2022-08-16T06:46:31.449Z,28.12
2022-08-16T06:52:58.701Z,28.12
2022-08-16T06:59:11.740Z,28.12
2022-08-16T07:05:41.399Z,28.12
2022-08-16T07:11:54.771Z,33.75
2022-08-16T07:18:14.784Z,33.75
2022-08-16T07:24:45.724Z,33.75
2022-08-16T07:30:57.730Z,33.75
2022-08-16T07:37:22.357Z,33.75
2022-08-16T07:43:41.685Z,39.38
2022-08-16T07:50:05.089Z,39.38
2022-08-16T07:56:23.742Z,39.38
2022-08-16T08:02:46.805Z,39.38
2022-08-16T08:09:06.742Z,45
2022-08-16T08:15:33.872Z,45
2022-08-16T08:22:00.422Z,45
2022-08-16T08:28:12.735Z,45
2022-08-16T08:34:32.779Z,50.62
2022-08-16T08:40:55.757Z,50.62
2022-08-16T08:47:15.754Z,56.25
2022-08-16T08:53:38.746Z,56.25
2022-08-16T08:59:58.729Z,56.25
2022-08-16T09:23:22.754Z,61.88
2022-08-16T09:29:46.337Z,61.88
2022-08-16T09:36:05.769Z,67.5
2022-08-16T09:42:28.731Z,67.5
2022-08-16T09:48:51.095Z,73.12
2022-08-16T09:55:11.782Z,67.5
2022-08-16T10:01:31.727Z,73.12
2022-08-16T10:07:56.030Z,78.75
2022-08-16T10:14:16.124Z,78.75
2022-08-16T10:20:37.884Z,78.75
2022-08-16T10:27:00.178Z,73.12
2022-08-16T10:33:20.736Z,90
2022-08-16T10:39:41.909Z,90
2022-08-16T10:46:03.807Z,95.62
2022-08-16T10:52:24.250Z,90
2022-08-16T10:58:46.770Z,90
2022-08-16T11:05:08.003Z,84.38
2022-08-16T11:11:29.768Z,39.38
2022-08-16T11:18:21.519Z,84.38
2022-08-16T11:24:13.813Z,95.62
2022-08-16T11:30:37.850Z,90
2022-08-16T11:36:59.849Z,101.25
2022-08-16T11:43:16.838Z,78.75
2022-08-16T11:49:38.731Z,129.38
2022-08-16T11:55:58.727Z,123.75
2022-08-16T12:02:31.805Z,123.75
2022-08-16T12:08:41.734Z,123.75
2022-08-16T12:15:04.770Z,129.38
2022-08-16T12:21:24.734Z,129.38
2022-08-16T12:27:49.685Z,140.62
2022-08-16T12:34:07.743Z,151.88
2022-08-16T12:40:30.832Z,146.25
2022-08-16T12:46:50.764Z,146.25
2022-08-16T12:53:13.725Z,151.88
2022-08-16T12:59:33.737Z,168.75
2022-08-16T13:05:56.762Z,140.62
2022-08-16T13:12:16.725Z,168.75
2022-08-16T13:18:39.768Z,157.5
2022-08-16T13:24:59.735Z,157.5
2022-08-16T13:31:23.840Z,50.62
2022-08-16T13:37:42.755Z,168.75
2022-08-16T13:44:09.306Z,180
2022-08-16T13:50:31.068Z,168.75
2022-08-16T13:56:48.730Z,151.88
2022-08-16T14:03:08.767Z,73.12
2022-08-16T14:09:32.044Z,106.88
2022-08-16T14:15:51.730Z,90
2022-08-16T14:22:31.008Z,78.75
2022-08-16T14:28:34.724Z,78.75
2022-08-16T14:34:57.769Z,95.62
2022-08-16T14:41:17.760Z,129.38
2022-08-16T14:47:40.734Z,151.88
2022-08-16T14:54:00.767Z,118.12
2022-08-16T15:00:27.088Z,95.62
2022-08-16T15:23:30.737Z,78.75
2022-08-16T15:29:52.133Z,78.75
2022-08-16T15:36:13.793Z,73.12
2022-08-16T15:42:33.736Z,67.5
2022-08-16T15:48:56.741Z,61.88
2022-08-16T15:55:24.223Z,78.75
2022-08-16T16:01:39.732Z,73.12
2022-08-16T16:08:09.829Z,90
2022-08-16T16:14:22.744Z,90
2022-08-16T16:20:42.733Z,73.12
2022-08-16T16:27:05.757Z,50.62
2022-08-16T16:33:25.735Z,50.62
2022-08-16T16:39:48.793Z,67.5
2022-08-16T16:46:23.746Z,61.88
2022-08-16T16:52:44.525Z,67.5
2022-08-16T16:58:53.314Z,56.25
2022-08-16T17:05:14.738Z,45
2022-08-16T17:11:37.362Z,56.25
2022-08-16T17:17:59.481Z,61.88
2022-08-16T17:24:19.797Z,50.62
2022-08-16T17:30:44.857Z,56.25
2022-08-16T17:37:05.082Z,45
2022-08-16T17:43:23.738Z,33.75
2022-08-16T17:49:43.788Z,33.75
2022-08-16T17:56:06.766Z,33.75
2022-08-16T18:02:42.324Z,28.12
2022-08-16T18:08:51.282Z,22.5
2022-08-16T18:15:09.962Z,11.25
2022-08-16T18:21:32.804Z,5.62
2022-08-16T18:27:52.740Z,0
2022-08-16T18:34:15.752Z,0
2022-08-16T18:40:35.741Z,0
2022-08-16T18:46:58.730Z,0
2022-08-16T18:53:18.768Z,0
2022-08-16T18:59:41.750Z,0
2022-08-16T19:06:01.740Z,0
2022-08-16T19:12:37.429Z,0
2022-08-16T19:18:44.731Z,0
2022-08-16T19:25:07.753Z,0
2022-08-16T19:31:27.743Z,0
2022-08-16T19:37:50.724Z,0
2022-08-16T19:44:10.752Z,0
2022-08-16T19:50:36.113Z,0
2022-08-16T19:56:53.766Z,0
2022-08-16T20:03:16.765Z,0
2022-08-16T20:09:36.785Z,0
2022-08-16T20:15:59.780Z,0
2022-08-16T20:22:35.801Z,0
2022-08-16T20:28:52.247Z,0
2022-08-16T20:35:02.798Z,0
2022-08-16T20:58:26.729Z,0
2022-08-16T21:04:49.719Z,0
2022-08-16T21:11:09.860Z,0
2022-08-16T21:17:32.723Z,0
2022-08-16T21:23:52.751Z,0
2022-08-16T21:30:15.757Z,0
2022-08-16T21:36:36.581Z,0
2022-08-16T21:42:58.767Z,0
2022-08-16T21:49:18.741Z,0
2022-08-16T21:55:41.728Z,0
2022-08-16T22:19:56.763Z,0
2022-08-16T22:26:16.726Z,0
2022-08-16T22:32:39.733Z,0
2022-08-16T22:38:59.886Z,0
2022-08-16T22:45:22.749Z,0
2022-08-16T22:51:42.767Z,0
2022-08-16T22:58:05.720Z,0
2022-08-16T23:04:25.811Z,0
2022-08-16T23:10:48.734Z,0
2022-08-16T23:17:08.811Z,0
2022-08-16T23:23:31.767Z,0
2022-08-16T23:29:51.715Z,0
2022-08-16T23:36:14.771Z,0
2022-08-16T23:42:42.071Z,0
2022-08-16T23:49:45.761Z,0
2022-08-16T23:55:17.779Z,0
